createdAt,value
2023-04-29T00:01:40.210Z,85.70
2023-04-29T00:04:07.507Z,86.60
2023-04-29T00:06:34.828Z,86.20
2023-04-29T00:09:01.800Z,86.60
2023-04-29T00:11:29.079Z,86.40
2023-04-29T00:13:56.111Z,86.70
2023-04-29T00:16:23.259Z,87.00
2023-04-29T00:18:50.536Z,86.70
2023-04-29T00:21:17.514Z,85.90
2023-04-29T00:23:44.554Z,85.80
2023-04-29T00:26:11.878Z,86.10
2023-04-29T00:28:40.071Z,86.80
2023-04-29T00:31:07.393Z,86.40
2023-04-29T00:33:34.469Z,86.10
2023-04-29T00:36:02.296Z,86.20
2023-04-29T00:38:29.586Z,85.80
2023-04-29T00:40:57.593Z,85.60
2023-04-29T00:43:24.615Z,85.80
2023-04-29T00:45:51.834Z,86.00
2023-04-29T00:48:18.918Z,85.70
2023-04-29T00:50:45.979Z,85.20
2023-04-29T00:53:13.713Z,84.80
2023-04-29T00:55:43.063Z,85.00
2023-04-29T00:58:10.757Z,84.70
2023-04-29T01:00:38.637Z,84.10
2023-04-29T01:03:06.384Z,84.10
2023-04-29T01:05:35.432Z,83.80
2023-04-29T01:08:08.419Z,83.90
2023-04-29T01:11:08.217Z,84.10
2023-04-29T01:14:01.007Z,84.20
2023-04-29T01:16:29.392Z,84.30
2023-04-29T01:18:59.293Z,84.00
2023-04-29T01:21:32.097Z,83.90
2023-04-29T01:23:59.002Z,83.60
2023-04-29T01:26:31.685Z,83.10
2023-04-29T01:29:35.546Z,83.00
2023-04-29T01:32:09.180Z,82.60
2023-04-29T01:34:42.287Z,82.40
2023-04-29T01:37:15.593Z,82.20
2023-04-29T01:40:05.997Z,82.30
2023-04-29T01:42:46.082Z,82.70
2023-04-29T01:45:21.703Z,81.70
2023-04-29T01:47:49.205Z,81.60
2023-04-29T01:50:16.651Z,81.90
2023-04-29T01:52:43.599Z,81.90
2023-04-29T01:55:11.230Z,81.50
2023-04-29T01:57:49.029Z,81.90
2023-04-29T02:00:44.937Z,82.50
2023-04-29T02:03:12.227Z,82.70
2023-04-29T02:05:42.845Z,83.90
2023-04-29T02:08:09.773Z,84.60
2023-04-29T02:10:41.591Z,85.30
2023-04-29T02:13:18.767Z,85.10
2023-04-29T02:15:45.683Z,85.50
2023-04-29T02:18:12.629Z,84.80
2023-04-29T02:20:41.478Z,84.50
2023-04-29T02:23:08.473Z,85.00
2023-04-29T02:25:36.496Z,85.00
2023-04-29T02:28:03.471Z,84.30
2023-04-29T02:30:30.852Z,84.00
2023-04-29T02:32:58.116Z,83.90
2023-04-29T02:35:25.051Z,83.80
2023-04-29T02:37:52.377Z,83.90
2023-04-29T02:40:19.405Z,83.70
2023-04-29T02:42:46.327Z,83.70
2023-04-29T02:45:13.336Z,83.70
2023-04-29T02:47:40.514Z,83.70
2023-04-29T02:50:07.743Z,83.90
2023-04-29T02:52:34.952Z,83.70
2023-04-29T02:55:02.109Z,83.80
2023-04-29T02:57:29.880Z,83.20
2023-04-29T02:59:57.506Z,83.40
2023-04-29T03:02:24.695Z,83.10
2023-04-29T03:04:55.781Z,83.10
2023-04-29T03:07:22.869Z,83.30
2023-04-29T03:09:49.851Z,83.60
2023-04-29T03:12:16.980Z,83.50
2023-04-29T03:14:46.321Z,83.80
2023-04-29T03:17:13.908Z,83.90
2023-04-29T03:19:41.727Z,83.30
2023-04-29T03:22:10.865Z,83.00
2023-04-29T03:24:39.626Z,82.80
2023-04-29T03:27:06.536Z,82.70
2023-04-29T03:29:33.876Z,82.70
2023-04-29T03:32:02.716Z,82.80
2023-04-29T03:34:30.174Z,82.60
2023-04-29T03:37:16.596Z,82.60
2023-04-29T03:39:47.525Z,82.40
2023-04-29T03:42:14.540Z,82.30
2023-04-29T03:44:41.529Z,82.00
2023-04-29T03:47:09.598Z,81.90
2023-04-29T03:49:36.570Z,82.00
2023-04-29T03:52:04.913Z,81.50
2023-04-29T03:54:32.046Z,81.60
2023-04-29T03:56:59.291Z,81.20
2023-04-29T03:59:26.315Z,81.80
2023-04-29T04:01:54.378Z,81.10
2023-04-29T04:04:22.198Z,81.40
2023-04-29T04:06:52.037Z,81.30
2023-04-29T04:09:21.697Z,81.20
2023-04-29T04:11:48.722Z,81.60
2023-04-29T04:14:15.862Z,81.30
2023-04-29T04:16:43.125Z,81.10
2023-04-29T04:19:10.535Z,80.80
2023-04-29T04:21:41.191Z,81.10
2023-04-29T04:24:09.996Z,81.00
2023-04-29T04:26:38.052Z,80.70
2023-04-29T04:29:14.736Z,80.40
2023-04-29T04:31:59.825Z,80.50
2023-04-29T04:34:27.327Z,80.20
2023-04-29T04:36:56.754Z,81.00
2023-04-29T04:39:23.877Z,81.10
2023-04-29T04:41:52.291Z,80.90
2023-04-29T04:44:20.010Z,80.50
2023-04-29T04:47:02.906Z,80.80
2023-04-29T04:49:46.324Z,81.00
2023-04-29T04:52:13.720Z,80.80
2023-04-29T04:54:46.518Z,81.00
2023-04-29T04:57:18.022Z,80.70
2023-04-29T04:59:45.125Z,80.40
2023-04-29T05:02:12.650Z,80.40
2023-04-29T05:04:39.656Z,80.30
2023-04-29T05:07:06.625Z,80.80
2023-04-29T05:09:49.598Z,81.10
2023-04-29T05:12:16.520Z,81.60
2023-04-29T05:14:43.819Z,82.10
2023-04-29T05:17:11.493Z,82.60
2023-04-29T05:19:38.575Z,83.20
2023-04-29T05:22:06.752Z,83.90
2023-04-29T05:24:33.818Z,83.50
2023-04-29T05:27:00.955Z,84.10
2023-04-29T05:29:28.168Z,84.10
2023-04-29T05:31:59.477Z,84.20
2023-04-29T05:34:26.465Z,83.80
2023-04-29T05:36:53.539Z,84.20
2023-04-29T05:39:21.001Z,83.50
2023-04-29T05:41:57.026Z,83.50
2023-04-29T05:44:34.478Z,82.80
2023-04-29T05:47:01.492Z,82.70
2023-04-29T05:49:28.412Z,82.90
2023-04-29T05:51:55.425Z,83.10
2023-04-29T05:54:22.402Z,83.60
2023-04-29T05:56:49.380Z,83.90
2023-04-29T05:59:16.317Z,83.80
2023-04-29T06:01:49.990Z,83.90
2023-04-29T06:04:17.106Z,84.00
2023-04-29T06:07:02.609Z,83.70
2023-04-29T06:10:02.319Z,84.20
2023-04-29T06:12:30.604Z,84.40
2023-04-29T06:14:58.679Z,84.10
2023-04-29T06:17:25.740Z,83.80
2023-04-29T06:19:53.126Z,83.00
2023-04-29T06:22:20.379Z,83.30
2023-04-29T06:24:50.622Z,83.40
2023-04-29T06:27:26.330Z,83.20
2023-04-29T06:29:53.574Z,82.80
2023-04-29T06:32:21.096Z,82.10
2023-04-29T06:34:48.156Z,81.60
2023-04-29T06:37:38.355Z,82.10
2023-04-29T06:40:21.045Z,82.10
2023-04-29T06:43:31.123Z,81.70
2023-04-29T06:46:29.418Z,81.30
2023-04-29T06:49:07.246Z,80.40
2023-04-29T06:51:35.776Z,80.10
2023-04-29T06:54:02.807Z,79.80
2023-04-29T06:56:29.799Z,79.70
2023-04-29T06:58:56.757Z,80.00
2023-04-29T07:01:23.645Z,80.50
2023-04-29T07:03:51.388Z,80.00
2023-04-29T07:06:19.513Z,79.90
2023-04-29T07:08:46.527Z,79.80
2023-04-29T07:11:15.428Z,79.00
2023-04-29T07:13:42.330Z,79.10
2023-04-29T07:16:24.165Z,78.10
2023-04-29T07:18:51.158Z,78.20
2023-04-29T07:21:18.030Z,78.20
2023-04-29T07:23:45.023Z,78.20
2023-04-29T07:26:13.272Z,77.70
2023-04-29T07:28:40.462Z,77.80
2023-04-29T07:31:09.857Z,77.70
2023-04-29T07:33:41.705Z,77.80
2023-04-29T07:36:10.878Z,77.30
2023-04-29T07:38:37.778Z,76.80
2023-04-29T07:41:04.731Z,76.60
2023-04-29T07:43:31.900Z,76.70
2023-04-29T07:45:59.671Z,76.50
2023-04-29T07:48:26.699Z,76.70
2023-04-29T07:50:53.764Z,77.20
2023-04-29T07:53:21.882Z,76.30
2023-04-29T07:55:50.933Z,76.50
2023-04-29T07:58:19.448Z,74.80
2023-04-29T08:00:47.436Z,74.80
2023-04-29T08:03:14.667Z,75.30
2023-04-29T08:05:43.465Z,75.10
2023-04-29T08:08:14.527Z,75.10
2023-04-29T08:10:43.320Z,74.30
2023-04-29T08:13:10.292Z,74.40
2023-04-29T08:15:37.255Z,75.70
2023-04-29T08:18:04.356Z,74.40
2023-04-29T08:20:31.675Z,72.00
2023-04-29T08:22:59.646Z,71.20
2023-04-29T08:25:27.307Z,70.20
2023-04-29T08:27:54.309Z,70.60
2023-04-29T08:30:21.270Z,69.10
2023-04-29T08:32:48.840Z,70.10
2023-04-29T08:35:15.822Z,69.40
2023-04-29T08:37:43.209Z,69.60
2023-04-29T08:40:10.389Z,68.80
2023-04-29T08:42:37.766Z,69.20
2023-04-29T08:45:06.990Z,69.40
2023-04-29T08:47:34.367Z,68.70
2023-04-29T08:50:05.318Z,68.00
2023-04-29T08:52:32.745Z,67.30
2023-04-29T08:55:01.415Z,67.10
2023-04-29T08:57:29.420Z,67.20
2023-04-29T08:59:56.343Z,67.90
2023-04-29T09:02:24.866Z,68.40
2023-04-29T09:05:06.569Z,67.80
2023-04-29T09:07:33.576Z,67.90
2023-04-29T09:10:01.502Z,63.10
2023-04-29T09:12:30.281Z,62.20
2023-04-29T09:14:59.553Z,64.50
2023-04-29T09:17:39.828Z,62.00
2023-04-29T09:20:26.562Z,61.60
2023-04-29T09:22:53.488Z,61.40
2023-04-29T09:25:20.989Z,63.00
2023-04-29T09:27:47.951Z,63.20
2023-04-29T09:30:16.654Z,61.20
2023-04-29T09:32:45.204Z,60.60
2023-04-29T09:35:21.458Z,61.50
2023-04-29T09:37:48.321Z,60.70
2023-04-29T09:40:31.731Z,61.20
2023-04-29T09:42:59.569Z,61.80
2023-04-29T09:45:34.450Z,61.80
2023-04-29T09:48:05.307Z,62.10
2023-04-29T09:50:32.680Z,61.40
2023-04-29T09:53:00.285Z,60.20
2023-04-29T09:55:27.420Z,60.90
2023-04-29T09:57:54.408Z,60.40
2023-04-29T10:00:21.492Z,61.50
2023-04-29T10:02:50.054Z,61.20
2023-04-29T10:05:17.289Z,60.80
2023-04-29T10:07:46.163Z,61.20
2023-04-29T10:10:13.854Z,60.80
2023-04-29T10:12:41.276Z,61.40
2023-04-29T10:15:08.551Z,60.50
2023-04-29T10:17:37.105Z,61.00
2023-04-29T10:20:09.092Z,61.00
2023-04-29T10:22:40.636Z,61.20
2023-04-29T10:25:07.950Z,60.50
2023-04-29T10:27:37.432Z,60.30
2023-04-29T10:30:05.116Z,60.50
2023-04-29T10:32:43.454Z,59.40
2023-04-29T10:35:22.959Z,60.10
2023-04-29T10:37:50.203Z,60.30
2023-04-29T10:40:18.604Z,60.50
2023-04-29T10:42:46.763Z,60.20
2023-04-29T10:45:19.755Z,59.90
2023-04-29T10:48:02.531Z,60.50
2023-04-29T10:50:42.522Z,60.40
2023-04-29T10:53:09.418Z,59.90
2023-04-29T10:55:37.661Z,60.70
2023-04-29T10:58:05.211Z,60.80
2023-04-29T11:00:33.678Z,60.10
2023-04-29T11:03:01.598Z,60.10
2023-04-29T11:05:36.031Z,59.80
2023-04-29T11:08:23.723Z,60.30
2023-04-29T11:10:54.107Z,59.40
2023-04-29T11:13:28.256Z,57.80
2023-04-29T11:16:11.306Z,58.70
2023-04-29T11:18:57.136Z,59.70
2023-04-29T11:21:24.079Z,59.50
2023-04-29T11:23:51.786Z,59.50
2023-04-29T11:26:21.984Z,59.50
2023-04-29T11:28:48.983Z,59.70
2023-04-29T11:31:16.092Z,59.10
2023-04-29T11:33:43.148Z,58.40
2023-04-29T11:36:11.473Z,58.10
2023-04-29T11:38:40.023Z,57.40
2023-04-29T11:41:07.168Z,58.80
2023-04-29T11:43:34.117Z,58.40
2023-04-29T11:46:01.172Z,58.90
2023-04-29T11:48:29.764Z,57.40
2023-04-29T11:50:58.672Z,57.50
2023-04-29T11:53:27.992Z,57.50
2023-04-29T11:55:55.484Z,58.00
2023-04-29T11:58:22.800Z,58.80
2023-04-29T12:00:50.241Z,58.60
2023-04-29T12:03:18.227Z,59.90
2023-04-29T12:05:51.991Z,58.80
2023-04-29T12:08:22.585Z,59.00
2023-04-29T12:10:50.001Z,57.70
2023-04-29T12:13:18.006Z,58.50
2023-04-29T12:15:49.052Z,58.20
2023-04-29T12:18:17.028Z,60.60
2023-04-29T12:20:44.473Z,59.30
2023-04-29T12:23:12.334Z,59.00
2023-04-29T12:25:41.427Z,59.20
2023-04-29T12:28:17.924Z,60.10
2023-04-29T12:30:46.082Z,58.00
2023-04-29T12:33:20.435Z,58.30
2023-04-29T12:35:48.157Z,59.10
2023-04-29T12:38:21.932Z,60.10
2023-04-29T12:40:49.402Z,59.00
2023-04-29T12:43:16.606Z,58.90
2023-04-29T12:45:44.062Z,58.00
2023-04-29T12:48:22.060Z,57.90
2023-04-29T12:50:58.530Z,57.80
2023-04-29T12:53:26.214Z,58.10
2023-04-29T12:55:53.598Z,58.30
2023-04-29T12:58:20.708Z,57.90
2023-04-29T13:00:47.906Z,57.90
2023-04-29T13:03:15.261Z,59.00
2023-04-29T13:05:42.873Z,58.60
2023-04-29T13:08:09.993Z,58.50
2023-04-29T13:10:36.945Z,57.30
2023-04-29T13:13:04.135Z,57.20
2023-04-29T13:15:31.501Z,57.80
2023-04-29T13:17:59.477Z,58.10
2023-04-29T13:20:27.005Z,58.30
2023-04-29T13:22:55.334Z,58.50
2023-04-29T13:25:22.396Z,59.60
2023-04-29T13:27:50.691Z,58.40
2023-04-29T13:30:17.705Z,57.70
2023-04-29T13:32:51.835Z,58.40
2023-04-29T13:35:21.584Z,59.40
2023-04-29T13:37:49.422Z,58.00
2023-04-29T13:40:20.597Z,58.20
2023-04-29T13:42:50.555Z,57.50
2023-04-29T13:45:25.775Z,57.80
2023-04-29T13:48:07.338Z,57.80
2023-04-29T13:53:38.764Z,57.70
2023-04-29T13:56:34.870Z,56.90
2023-04-29T14:01:55.310Z,56.90
2023-04-29T14:04:04.517Z,56.20
2023-04-29T14:06:34.973Z,57.70
2023-04-29T14:09:03.705Z,57.40
2023-04-29T14:11:31.136Z,58.40
2023-04-29T14:13:58.099Z,58.30
2023-04-29T14:16:25.212Z,57.40
2023-04-29T14:18:52.261Z,56.90
2023-04-29T14:21:19.240Z,56.80
2023-04-29T14:23:49.650Z,57.40
2023-04-29T14:26:28.040Z,58.20
2023-04-29T14:28:59.723Z,58.20
2023-04-29T14:31:30.837Z,58.20
2023-04-29T14:33:58.269Z,58.40
2023-04-29T14:36:26.496Z,58.50
2023-04-29T14:38:53.610Z,59.00
2023-04-29T14:41:23.809Z,58.60
2023-04-29T14:43:50.802Z,58.80
2023-04-29T14:46:17.777Z,58.20
2023-04-29T14:48:45.109Z,58.50
2023-04-29T14:51:12.201Z,58.90
2023-04-29T14:53:39.316Z,58.80
2023-04-29T14:56:07.254Z,59.70
2023-04-29T14:58:34.142Z,59.40
2023-04-29T15:01:01.266Z,59.80
2023-04-29T15:03:28.250Z,60.00
2023-04-29T15:05:55.294Z,60.20
2023-04-29T15:08:22.293Z,60.90
2023-04-29T15:10:50.189Z,60.80
2023-04-29T15:13:17.340Z,60.90
2023-04-29T15:15:44.318Z,61.40
2023-04-29T15:18:11.340Z,60.80
2023-04-29T15:20:38.903Z,61.20
2023-04-29T15:23:06.134Z,61.50
2023-04-29T15:25:34.655Z,60.40
2023-04-29T15:28:04.009Z,60.70
2023-04-29T15:30:31.134Z,61.20
2023-04-29T15:32:58.266Z,61.40
2023-04-29T15:35:25.363Z,61.00
2023-04-29T15:37:52.285Z,60.40
2023-04-29T15:40:20.199Z,59.70
2023-04-29T15:42:47.240Z,59.60
2023-04-29T15:45:14.303Z,60.00
2023-04-29T15:47:41.250Z,60.40
2023-04-29T15:50:10.620Z,60.00
2023-04-29T15:52:37.534Z,60.80
2023-04-29T15:55:05.276Z,60.40
2023-04-29T15:57:32.483Z,61.10
2023-04-29T15:59:59.519Z,61.70
2023-04-29T16:02:26.695Z,62.40
2023-04-29T16:04:53.697Z,62.00
2023-04-29T16:07:20.787Z,61.70
2023-04-29T16:09:47.795Z,62.00
2023-04-29T16:12:14.745Z,61.30
2023-04-29T16:14:41.870Z,61.90
2023-04-29T16:17:08.937Z,61.80
2023-04-29T16:19:37.105Z,62.00
2023-04-29T16:22:04.511Z,62.10
2023-04-29T16:24:31.571Z,62.30
2023-04-29T16:26:59.385Z,62.30
2023-04-29T16:29:26.722Z,62.60
2023-04-29T16:31:54.006Z,62.80
2023-04-29T16:34:21.352Z,62.70
2023-04-29T16:36:48.549Z,62.40
2023-04-29T16:39:15.974Z,62.30
2023-04-29T16:41:46.200Z,62.60
2023-04-29T16:44:13.761Z,62.40
2023-04-29T16:46:41.118Z,62.90
2023-04-29T16:49:08.508Z,63.10
2023-04-29T16:51:35.940Z,63.50
2023-04-29T16:54:03.172Z,64.20
2023-04-29T16:56:30.177Z,63.50
2023-04-29T16:58:57.104Z,63.20
2023-04-29T17:01:24.272Z,63.30
2023-04-29T17:03:51.444Z,63.90
2023-04-29T17:06:18.574Z,64.20
2023-04-29T17:08:45.804Z,64.50
2023-04-29T17:11:12.876Z,64.50
2023-04-29T17:13:39.741Z,64.80
2023-04-29T17:16:07.275Z,65.30
2023-04-29T17:18:34.735Z,65.20
2023-04-29T17:21:03.038Z,65.60
2023-04-29T17:23:33.579Z,65.90
2023-04-29T17:26:01.209Z,65.50
2023-04-29T17:28:28.290Z,66.30
2023-04-29T17:30:59.692Z,66.50
2023-04-29T17:33:38.740Z,67.00
2023-04-29T17:36:06.490Z,67.90
2023-04-29T17:38:33.500Z,68.50
2023-04-29T17:41:01.319Z,69.00
2023-04-29T17:43:28.595Z,69.20
2023-04-29T17:45:57.915Z,69.70
2023-04-29T17:48:25.060Z,69.90
2023-04-29T17:50:52.402Z,70.20
2023-04-29T17:53:19.615Z,70.30
2023-04-29T17:55:47.216Z,70.60
2023-04-29T17:58:14.134Z,70.90
2023-04-29T18:00:41.921Z,71.10
2023-04-29T18:03:09.045Z,71.30
2023-04-29T18:05:36.458Z,71.40
2023-04-29T18:08:03.476Z,71.80
2023-04-29T18:10:30.851Z,71.90
2023-04-29T18:12:58.013Z,72.00
2023-04-29T18:15:24.898Z,72.40
2023-04-29T18:17:52.456Z,72.80
2023-04-29T18:20:19.626Z,73.10
2023-04-29T18:22:47.368Z,73.50
2023-04-29T18:25:14.478Z,73.90
2023-04-29T18:27:41.845Z,74.20
2023-04-29T18:30:09.445Z,75.00
2023-04-29T18:32:36.449Z,74.40
2023-04-29T18:35:04.291Z,74.70
2023-04-29T18:37:31.279Z,75.00
2023-04-29T18:39:58.576Z,75.20
2023-04-29T18:42:26.066Z,75.50
2023-04-29T18:44:53.269Z,75.90
2023-04-29T18:47:20.349Z,76.20
2023-04-29T18:49:47.269Z,76.20
2023-04-29T18:52:14.575Z,76.30
2023-04-29T18:54:41.874Z,76.50
2023-04-29T18:57:09.528Z,77.30
2023-04-29T18:59:38.214Z,77.40
2023-04-29T19:02:06.682Z,77.60
2023-04-29T19:04:36.044Z,77.90
2023-04-29T19:07:06.235Z,78.10
2023-04-29T19:09:34.027Z,78.10
2023-04-29T19:12:03.930Z,78.70
2023-04-29T19:14:33.606Z,78.40
2023-04-29T19:17:00.895Z,78.60
2023-04-29T19:19:29.425Z,79.10
2023-04-29T19:21:58.033Z,79.50
2023-04-29T19:24:25.742Z,79.70
2023-04-29T19:26:56.470Z,80.00
2023-04-29T19:29:24.169Z,80.30
2023-04-29T19:31:52.306Z,80.70
2023-04-29T19:34:20.163Z,80.80
2023-04-29T19:36:47.691Z,80.80
2023-04-29T19:39:17.050Z,80.80
2023-04-29T19:41:45.084Z,81.20
2023-04-29T19:44:13.088Z,81.70
2023-04-29T19:46:41.585Z,82.60
2023-04-29T19:49:09.222Z,82.80
2023-04-29T19:51:37.337Z,83.00
2023-04-29T19:54:04.623Z,82.40
2023-04-29T19:56:32.431Z,82.60
2023-04-29T19:59:00.071Z,82.90
2023-04-29T20:01:27.578Z,83.10
2023-04-29T20:03:54.783Z,83.40
2023-04-29T20:06:25.524Z,84.60
2023-04-29T20:08:52.853Z,84.90
2023-04-29T20:11:21.094Z,83.70
2023-04-29T20:13:48.906Z,83.70
2023-04-29T20:16:16.677Z,83.60
2023-04-29T20:18:44.516Z,83.70
2023-04-29T20:21:12.642Z,83.70
2023-04-29T20:23:40.673Z,83.80
2023-04-29T20:26:08.893Z,84.30
2023-04-29T20:28:36.227Z,84.50
2023-04-29T20:31:03.468Z,84.30
2023-04-29T20:33:32.292Z,84.30
2023-04-29T20:36:05.890Z,84.20
2023-04-29T20:38:37.192Z,84.70
2023-04-29T20:41:06.172Z,84.50
2023-04-29T20:43:33.430Z,84.40
2023-04-29T20:46:01.125Z,84.60
2023-04-29T20:48:28.676Z,84.50
2023-04-29T20:50:55.905Z,84.80
2023-04-29T20:53:23.005Z,84.80
2023-04-29T20:55:50.631Z,85.30
2023-04-29T20:58:17.990Z,86.10
2023-04-29T21:00:45.110Z,85.40
2023-04-29T21:03:12.429Z,85.10
2023-04-29T21:05:39.319Z,86.00
2023-04-29T21:08:06.684Z,86.60
2023-04-29T21:10:33.857Z,86.10
2023-04-29T21:13:01.110Z,85.90
2023-04-29T21:15:29.634Z,85.80
2023-04-29T21:17:57.101Z,85.70
2023-04-29T21:20:24.295Z,86.60
2023-04-29T21:22:51.777Z,86.50
2023-04-29T21:25:19.464Z,86.00
2023-04-29T21:27:47.138Z,86.00
2023-04-29T21:30:14.224Z,86.50
2023-04-29T21:32:41.298Z,87.20
2023-04-29T21:35:08.393Z,86.70
2023-04-29T21:37:35.524Z,86.80
2023-04-29T21:40:04.346Z,87.00
2023-04-29T21:42:32.043Z,87.50
2023-04-29T21:45:00.914Z,87.50
2023-04-29T21:47:29.253Z,87.10
2023-04-29T21:49:56.692Z,87.40
2023-04-29T21:52:24.124Z,87.40
2023-04-29T21:54:51.321Z,87.70
2023-04-29T21:57:19.313Z,88.00
2023-04-29T21:59:49.697Z,88.50
2023-04-29T22:02:23.048Z,88.90
2023-04-29T22:04:50.715Z,89.40
2023-04-29T22:07:22.095Z,89.60
2023-04-29T22:09:52.417Z,90.00
2023-04-29T22:12:20.243Z,90.00
2023-04-29T22:14:47.264Z,90.10
2023-04-29T22:17:14.634Z,90.30
2023-04-29T22:19:41.598Z,90.40
2023-04-29T22:22:09.001Z,90.50
2023-04-29T22:24:35.917Z,90.80
2023-04-29T22:27:03.563Z,90.90
2023-04-29T22:29:30.613Z,91.00
2023-04-29T22:31:57.533Z,91.00
2023-04-29T22:34:25.733Z,90.80
2023-04-29T22:36:52.856Z,90.70
2023-04-29T22:39:19.809Z,91.10
2023-04-29T22:41:46.752Z,91.30
2023-04-29T22:44:13.922Z,91.50
2023-04-29T22:46:41.247Z,91.90
2023-04-29T22:49:08.169Z,92.00
2023-04-29T22:51:35.408Z,92.00
2023-04-29T22:54:02.310Z,92.30
2023-04-29T22:56:29.191Z,92.70
2023-04-29T22:58:56.154Z,92.70
2023-04-29T23:01:23.183Z,92.80
2023-04-29T23:03:50.155Z,93.10
2023-04-29T23:06:17.118Z,93.10
2023-04-29T23:08:47.063Z,93.20
2023-04-29T23:11:14.147Z,93.40
2023-04-29T23:13:41.152Z,93.50
2023-04-29T23:16:10.609Z,93.60
2023-04-29T23:18:37.873Z,93.30
2023-04-29T23:21:04.904Z,93.20
2023-04-29T23:23:31.877Z,92.80
2023-04-29T23:25:58.873Z,92.80
2023-04-29T23:28:26.174Z,92.90
2023-04-29T23:30:54.525Z,92.70
2023-04-29T23:33:21.482Z,92.60
2023-04-29T23:35:51.777Z,92.90
2023-04-29T23:38:19.225Z,93.00
2023-04-29T23:40:46.673Z,92.90
2023-04-29T23:43:15.091Z,93.10
2023-04-29T23:45:43.792Z,93.20
2023-04-29T23:48:10.996Z,93.30
2023-04-29T23:50:37.998Z,93.20
2023-04-29T23:53:04.947Z,93.00
2023-04-29T23:55:32.556Z,93.00
2023-04-29T23:57:59.539Z,93.20
